createdAt,value
2019-05-17T00:01:26.894Z,99553.91
2019-05-17T00:03:58.117Z,99558.34
2019-05-17T00:06:28.832Z,99551.11
2019-05-17T00:08:59.970Z,99550.98
2019-05-17T00:11:32.429Z,99550.43
2019-05-17T00:14:06.334Z,99551.94
2019-05-17T00:16:37.614Z,99546.91
2019-05-17T00:19:08.309Z,99535.79
2019-05-17T00:21:39.398Z,99540.83
2019-05-17T00:24:10.398Z,99540.06
2019-05-17T00:26:41.024Z,99534.65
2019-05-17T00:29:12.108Z,99526.27
2019-05-17T00:31:46.140Z,99522.83
2019-05-17T00:34:16.972Z,99524.06
2019-05-17T00:36:48.411Z,99524.45
2019-05-17T00:39:19.017Z,99519.11
2019-05-17T00:41:51.126Z,99517.09
2019-05-17T00:44:22.104Z,99516.80
2019-05-17T00:46:52.731Z,99513.25
2019-05-17T00:49:23.568Z,99515.33
2019-05-17T00:51:56.742Z,99513.42
2019-05-17T00:54:28.203Z,99517.68
2019-05-17T00:56:59.789Z,99519.18
2019-05-17T00:59:30.448Z,99521.70
2019-05-17T01:02:03.686Z,99522.36
2019-05-17T01:04:36.907Z,99516.75
2019-05-17T01:07:07.191Z,99513.76
2019-05-17T01:09:37.815Z,99517.01
2019-05-17T01:12:08.903Z,99510.12
2019-05-17T01:14:39.513Z,99514.45
2019-05-17T01:17:10.537Z,99508.52
2019-05-17T01:19:43.002Z,99512.42
2019-05-17T01:22:13.646Z,99516.61
2019-05-17T01:24:46.366Z,99517.77
2019-05-17T01:27:20.102Z,99511.25
2019-05-17T01:29:51.055Z,99505.60
2019-05-17T01:32:22.245Z,99509.86
2019-05-17T01:34:52.938Z,99506.77
2019-05-17T01:37:23.546Z,99506.04
2019-05-17T01:39:54.358Z,99505.34
2019-05-17T01:42:26.487Z,99508.63
2019-05-17T01:44:59.553Z,99497.77
2019-05-17T01:47:30.149Z,99497.59
2019-05-17T01:50:01.138Z,99490.56
2019-05-17T01:52:31.870Z,99483.86
2019-05-17T01:55:02.468Z,99493.29
2019-05-17T01:57:36.753Z,99490.02
2019-05-17T02:00:09.086Z,99485.97
2019-05-17T02:02:44.372Z,99495.19
2019-05-17T02:05:17.459Z,99490.89
2019-05-17T02:07:48.213Z,99488.08
2019-05-17T02:10:20.362Z,99489.29
2019-05-17T02:12:51.152Z,99493.80
2019-05-17T02:15:22.341Z,99496.06
2019-05-17T02:17:53.793Z,99492.67
2019-05-17T02:20:24.777Z,99507.61
2019-05-17T02:22:56.584Z,99498.76
2019-05-17T02:25:27.332Z,99509.28
2019-05-17T02:27:58.417Z,99501.45
2019-05-17T02:30:29.023Z,99496.68
2019-05-17T02:33:03.455Z,99491.58
2019-05-17T02:35:33.670Z,99503.59
2019-05-17T02:38:04.839Z,99497.16
2019-05-17T02:40:35.465Z,99489.21
2019-05-17T02:43:06.568Z,99499.12
2019-05-17T02:45:37.184Z,99488.92
2019-05-17T02:48:07.788Z,99498.23
2019-05-17T02:50:38.456Z,99509.09
2019-05-17T02:53:13.238Z,99499.29
2019-05-17T02:55:43.679Z,99498.41
2019-05-17T02:58:14.820Z,99498.58
2019-05-17T03:00:45.429Z,99495.22
2019-05-17T03:03:16.062Z,99495.15
2019-05-17T03:05:46.730Z,99497.55
2019-05-17T03:08:17.799Z,99493.38
2019-05-17T03:10:48.832Z,99501.07
2019-05-17T03:13:23.167Z,99489.83
2019-05-17T03:15:52.799Z,99493.23
2019-05-17T03:18:23.613Z,99491.50
2019-05-17T03:20:54.259Z,99493.59
2019-05-17T03:23:24.860Z,99490.96
2019-05-17T03:25:55.586Z,99491.51
2019-05-17T03:28:26.806Z,99500.14
2019-05-17T03:30:58.855Z,99499.55
2019-05-17T03:33:35.868Z,99500.72
2019-05-17T03:36:06.251Z,99500.78
2019-05-17T03:38:35.841Z,99500.05
2019-05-17T03:41:17.731Z,99499.63
2019-05-17T03:43:41.225Z,99503.27
2019-05-17T03:46:13.835Z,99498.71
2019-05-17T03:48:44.718Z,99490.17
2019-05-17T03:51:15.377Z,99496.63
2019-05-17T03:53:48.117Z,99484.64
2019-05-17T03:56:18.698Z,99483.95
2019-05-17T03:58:52.825Z,99486.80
2019-05-17T04:01:23.175Z,99481.69
2019-05-17T04:03:54.155Z,99477.23
2019-05-17T04:06:24.703Z,99479.95
2019-05-17T04:21:55.636Z,99481.64
2019-05-17T04:24:26.724Z,99486.53
2019-05-17T04:26:58.161Z,99483.76
2019-05-17T04:29:33.193Z,99490.56
2019-05-17T04:32:04.334Z,99496.01
2019-05-17T04:34:35.245Z,99498.53
2019-05-17T04:37:06.002Z,99501.83
2019-05-17T04:39:36.688Z,99496.34
2019-05-17T04:42:07.406Z,99494.38
2019-05-17T04:44:38.053Z,99500.26
2019-05-17T04:47:08.767Z,99505.59
2019-05-17T04:49:43.730Z,99513.67
2019-05-17T04:52:14.240Z,99517.08
2019-05-17T04:54:44.861Z,99532.81
2019-05-17T04:57:15.626Z,99521.34
2019-05-17T04:59:46.330Z,99529.27
2019-05-17T05:02:19.733Z,99524.30
2019-05-17T05:04:53.178Z,99525.41
2019-05-17T05:07:23.000Z,99530.17
2019-05-17T05:09:53.685Z,99519.27
2019-05-17T05:12:24.855Z,99524.53
2019-05-17T05:14:55.443Z,99524.70
2019-05-17T05:17:26.110Z,99524.95
2019-05-17T05:19:57.138Z,99517.88
2019-05-17T05:22:27.858Z,99527.13
2019-05-17T05:24:58.492Z,99521.37
2019-05-17T05:27:31.520Z,99520.91
2019-05-17T05:30:03.072Z,99522.17
2019-05-17T05:32:33.964Z,99520.08
2019-05-17T05:35:07.344Z,99520.48
2019-05-17T05:37:38.005Z,99522.10
2019-05-17T05:40:08.843Z,99524.27
2019-05-17T05:42:42.273Z,99527.87
2019-05-17T05:45:12.855Z,99530.08
2019-05-17T05:47:47.459Z,99526.64
2019-05-17T05:50:18.337Z,99522.59
2019-05-17T05:52:49.071Z,99523.56
2019-05-17T05:55:23.144Z,99522.14
2019-05-17T05:57:53.161Z,99519.06
2019-05-17T06:00:23.797Z,99517.51
2019-05-17T06:02:54.457Z,99516.55
2019-05-17T06:05:25.100Z,99515.84
2019-05-17T06:07:57.215Z,99514.30
2019-05-17T06:10:27.876Z,99513.80
2019-05-17T06:12:59.124Z,99525.73
2019-05-17T06:15:31.932Z,99518.62
2019-05-17T06:18:02.912Z,99526.98
2019-05-17T06:20:34.106Z,99518.91
2019-05-17T06:23:04.825Z,99520.05
2019-05-17T06:52:22.599Z,99526.87
2019-05-17T06:54:53.883Z,99526.30
2019-05-17T06:57:25.496Z,99523.64
2019-05-17T06:59:56.299Z,99531.46
2019-05-17T07:02:27.013Z,99522.86
2019-05-17T07:05:01.332Z,99522.86
2019-05-17T07:07:31.645Z,99529.72
2019-05-17T07:10:02.317Z,99525.80
2019-05-17T07:12:32.975Z,99528.00
2019-05-17T07:15:03.586Z,99526.42
2019-05-17T07:17:34.236Z,99519.25
2019-05-17T07:20:05.032Z,99514.86
2019-05-17T07:22:35.731Z,99530.89
2019-05-17T07:25:12.160Z,99526.60
2019-05-17T07:27:45.881Z,99530.30
2019-05-17T07:30:16.162Z,99530.98
2019-05-17T07:32:46.745Z,99524.12
2019-05-17T07:35:19.604Z,99524.09
2019-05-17T07:37:50.250Z,99523.02
2019-05-17T07:40:20.974Z,99526.30
2019-05-17T07:42:51.672Z,99527.65
2019-05-17T07:45:22.608Z,99517.61
2019-05-17T07:47:53.278Z,99509.63
2019-05-17T07:50:23.983Z,99521.98
2019-05-17T07:52:54.611Z,99520.63
2019-05-17T07:55:25.256Z,99515.95
2019-05-17T07:57:55.927Z,99517.33
2019-05-17T08:00:26.600Z,99518.97
2019-05-17T08:03:02.055Z,99520.59
2019-05-17T08:05:35.517Z,99513.94
2019-05-17T08:08:06.264Z,99520.34
2019-05-17T08:10:37.067Z,99508.01
2019-05-17T08:13:21.621Z,99520.03
2019-05-17T08:15:40.118Z,99512.13
2019-05-17T08:18:29.725Z,99515.52
2019-05-17T08:21:02.552Z,99518.98
2019-05-17T08:23:33.194Z,99510.74
2019-05-17T08:26:03.777Z,99507.96
2019-05-17T08:28:34.565Z,99511.52
2019-05-17T08:31:05.186Z,99510.09
2019-05-17T08:33:35.801Z,99506.52
2019-05-17T08:36:06.558Z,99510.78
2019-05-17T08:38:39.214Z,99508.50
2019-05-17T08:41:10.546Z,99512.36
2019-05-17T08:43:46.630Z,99508.26
2019-05-17T08:46:13.868Z,99511.13
2019-05-17T08:48:44.716Z,99509.81
2019-05-17T08:51:15.411Z,99502.55
2019-05-17T08:53:46.200Z,99504.28
2019-05-17T08:56:16.928Z,99498.38
2019-05-17T08:58:49.694Z,99504.17
2019-05-17T09:01:19.897Z,99498.21
2019-05-17T09:03:50.740Z,99499.84
2019-05-17T09:06:22.158Z,99496.47
2019-05-17T09:08:52.860Z,99511.33
2019-05-17T09:11:23.430Z,99501.77
2019-05-17T09:13:58.528Z,99493.35
2019-05-17T09:16:30.559Z,99493.02
2019-05-17T09:23:19.660Z,99488.16
2019-05-17T09:25:52.221Z,99488.16
2019-05-17T09:28:22.842Z,99483.36
2019-05-17T09:30:53.589Z,99480.80
2019-05-17T09:33:24.306Z,99490.69
2019-05-17T09:35:56.330Z,99476.77
2019-05-17T09:38:26.930Z,99479.03
2019-05-17T09:40:59.970Z,99478.77
2019-05-17T09:43:30.857Z,99467.12
2019-05-17T09:46:01.944Z,99479.25
2019-05-17T09:48:35.375Z,99474.77
2019-05-17T09:51:06.007Z,99466.32
2019-05-17T09:53:40.112Z,99471.38
2019-05-17T09:56:10.538Z,99466.80
2019-05-17T09:58:41.217Z,99476.95
2019-05-17T10:01:11.877Z,99463.61
2019-05-17T10:03:42.645Z,99464.09
2019-05-17T10:06:13.443Z,99467.02
2019-05-17T10:08:44.187Z,99458.53
2019-05-17T10:11:15.473Z,99453.95
2019-05-17T10:40:31.245Z,99458.07
2019-05-17T10:43:02.466Z,99446.14
2019-05-17T10:45:33.299Z,99439.71
2019-05-17T10:48:03.941Z,99444.22
2019-05-17T10:50:34.672Z,99444.77
2019-05-17T10:53:05.300Z,99451.97
2019-05-17T10:55:35.988Z,99449.59
2019-05-17T10:58:09.684Z,99446.57
2019-05-17T11:00:41.312Z,99441.88
2019-05-17T11:03:12.327Z,99442.25
2019-05-17T11:05:45.008Z,99445.39
2019-05-17T11:08:16.149Z,99437.33
2019-05-17T11:10:50.545Z,99434.64
2019-05-17T11:13:21.263Z,99436.59
2019-05-17T11:15:52.056Z,99434.91
2019-05-17T11:18:23.252Z,99430.95
2019-05-17T11:20:53.819Z,99435.94
2019-05-17T11:23:25.100Z,99424.91
2019-05-17T11:25:55.820Z,99426.09
2019-05-17T11:28:27.114Z,99428.30
2019-05-17T11:30:57.729Z,99423.20
2019-05-17T11:33:29.341Z,99421.84
2019-05-17T11:36:01.512Z,99421.81
2019-05-17T11:38:32.230Z,99414.17
2019-05-17T11:41:19.996Z,99413.54
2019-05-17T11:43:35.783Z,99417.56
2019-05-17T11:46:06.443Z,99419.41
2019-05-17T11:48:37.203Z,99413.41
2019-05-17T11:51:08.379Z,99414.59
2019-05-17T11:53:39.560Z,99408.49
2019-05-17T11:56:10.585Z,99416.88
2019-05-17T11:58:41.322Z,99416.30
2019-05-17T12:01:13.023Z,99409.59
2019-05-17T12:03:44.211Z,99415.08
2019-05-17T12:06:18.484Z,99409.78
2019-05-17T12:08:49.209Z,99411.05
2019-05-17T12:11:20.549Z,99412.08
2019-05-17T12:13:53.418Z,99405.23
2019-05-17T12:16:25.118Z,99409.97
2019-05-17T12:18:57.625Z,99407.03
2019-05-17T12:21:28.948Z,99399.28
2019-05-17T12:23:59.719Z,99407.43
2019-05-17T12:26:31.835Z,99398.30
2019-05-17T12:29:03.068Z,99399.08
2019-05-17T12:31:34.236Z,99398.96
2019-05-17T12:34:05.581Z,99404.22
2019-05-17T12:36:36.382Z,99406.06
2019-05-17T12:39:07.915Z,99407.77
2019-05-17T12:41:38.582Z,99398.89
2019-05-17T12:44:09.772Z,99387.67
2019-05-17T12:46:40.729Z,99398.06
2019-05-17T12:49:11.577Z,99393.16
2019-05-17T12:51:42.920Z,99394.81
2019-05-17T12:54:14.162Z,99391.08
2019-05-17T12:56:44.758Z,99392.76
2019-05-17T12:59:15.464Z,99385.35
2019-05-17T13:01:46.076Z,99394.81
2019-05-17T13:04:16.674Z,99394.59
2019-05-17T13:06:49.291Z,99385.77
2019-05-17T13:09:19.942Z,99394.63
2019-05-17T13:11:51.149Z,99391.39
2019-05-17T13:14:21.927Z,99391.44
2019-05-17T13:16:53.277Z,99385.91
2019-05-17T13:19:25.425Z,99384.64
2019-05-17T13:21:57.083Z,99388.45
2019-05-17T13:24:28.498Z,99388.88
2019-05-17T13:27:00.256Z,99387.27
2019-05-17T13:29:34.609Z,99391.33
2019-05-17T13:32:05.375Z,99385.22
2019-05-17T13:34:36.581Z,99388.44
2019-05-17T13:37:07.902Z,99381.67
2019-05-17T13:39:38.679Z,99381.97
2019-05-17T13:42:09.875Z,99380.97
2019-05-17T13:44:41.244Z,99381.31
2019-05-17T13:47:12.242Z,99384.34
2019-05-17T13:49:43.461Z,99376.70
2019-05-17T13:52:17.776Z,99369.55
2019-05-17T13:54:50.582Z,99368.37
2019-05-17T13:57:21.225Z,99366.75
2019-05-17T13:59:52.584Z,99367.56
2019-05-17T14:02:23.295Z,99376.08
2019-05-17T14:04:54.092Z,99371.86
2019-05-17T14:07:24.706Z,99362.72
2019-05-17T14:09:55.374Z,99366.63
2019-05-17T14:12:28.956Z,99362.06
2019-05-17T14:14:59.574Z,99364.41
2019-05-17T14:17:30.442Z,99356.78
2019-05-17T14:20:01.306Z,99364.80
2019-05-17T14:22:35.912Z,99362.83
2019-05-17T14:25:06.833Z,99355.23
2019-05-17T14:27:37.572Z,99354.31
2019-05-17T14:30:10.034Z,99355.93
2019-05-17T14:32:42.291Z,99354.75
2019-05-17T14:35:13.172Z,99362.24
2019-05-17T14:37:44.660Z,99347.32
2019-05-17T14:40:16.735Z,99357.07
2019-05-17T14:42:48.163Z,99351.05
2019-05-17T14:45:19.067Z,99337.22
2019-05-17T14:47:50.425Z,99336.64
2019-05-17T14:50:20.921Z,99333.31
2019-05-17T14:52:51.524Z,99331.36
2019-05-17T14:55:22.289Z,99330.02
2019-05-17T14:57:53.218Z,99325.13
2019-05-17T15:00:23.970Z,99327.27
2019-05-17T15:02:54.574Z,99326.38
2019-05-17T15:05:25.493Z,99328.08
2019-05-17T15:07:57.721Z,99327.05
2019-05-17T15:10:28.347Z,99327.30
2019-05-17T15:13:01.549Z,99317.09
2019-05-17T15:15:31.417Z,99321.02
2019-05-17T15:18:09.024Z,99317.58
2019-05-17T15:20:37.829Z,99322.05
2019-05-17T15:23:08.550Z,99314.16
2019-05-17T15:25:39.188Z,99304.45
2019-05-17T15:28:09.821Z,99312.55
2019-05-17T15:30:40.596Z,99313.77
2019-05-17T15:33:11.323Z,99308.05
2019-05-17T15:35:42.855Z,99309.70
2019-05-17T15:38:15.456Z,99310.11
2019-05-17T15:40:45.847Z,99308.52
2019-05-17T15:43:18.575Z,99310.18
2019-05-17T15:45:49.268Z,99305.20
2019-05-17T15:48:20.077Z,99307.95
2019-05-17T15:50:50.681Z,99312.95
2019-05-17T15:53:22.152Z,99311.62
2019-05-17T15:55:52.778Z,99312.84
2019-05-17T15:58:23.413Z,99310.64
2019-05-17T16:00:56.677Z,99314.49
2019-05-17T16:03:27.263Z,99313.22
2019-05-17T16:05:57.935Z,99312.70
2019-05-17T16:08:29.842Z,99310.83
2019-05-17T16:11:00.690Z,99313.90
2019-05-17T16:13:33.893Z,99325.46
2019-05-17T16:16:04.373Z,99312.39
2019-05-17T16:18:35.196Z,99310.25
2019-05-17T16:21:05.971Z,99313.29
2019-05-17T16:23:36.653Z,99321.81
2019-05-17T16:26:08.323Z,99312.77
2019-05-17T16:28:39.152Z,99310.06
2019-05-17T16:31:11.739Z,99322.66
2019-05-17T16:33:42.362Z,99318.84
2019-05-17T16:36:13.035Z,99322.70
2019-05-17T16:38:43.721Z,99318.86
2019-05-17T16:41:16.509Z,99330.66
2019-05-17T16:43:47.156Z,99325.49
2019-05-17T16:46:17.877Z,99335.86
2019-05-17T16:48:48.462Z,99335.63
2019-05-17T16:51:19.123Z,99331.00
2019-05-17T16:53:49.830Z,99333.19
2019-05-17T16:56:20.609Z,99332.11
2019-05-17T16:58:51.209Z,99329.09
2019-05-17T17:01:21.948Z,99329.39
2019-05-17T17:03:52.669Z,99329.95
2019-05-17T17:06:23.280Z,99342.23
2019-05-17T17:08:54.041Z,99328.59
2019-05-17T17:11:24.726Z,99339.50
2019-05-17T17:13:55.467Z,99338.44
2019-05-17T17:16:26.087Z,99330.79
2019-05-17T17:18:56.750Z,99328.07
2019-05-17T17:21:27.483Z,99325.34
2019-05-17T17:23:58.451Z,99331.02
2019-05-17T17:26:29.063Z,99326.11
2019-05-17T17:28:59.904Z,99341.12
2019-05-17T17:31:31.071Z,99330.75
2019-05-17T17:34:01.782Z,99332.39
2019-05-17T17:36:32.401Z,99333.74
2019-05-17T17:39:04.745Z,99319.80
2019-05-17T17:41:35.422Z,99323.36
2019-05-17T17:44:09.607Z,99334.80
2019-05-17T17:46:40.278Z,99335.63
2019-05-17T17:49:10.903Z,99335.63
2019-05-17T17:51:41.569Z,99335.32
2019-05-17T17:54:12.560Z,99332.31
2019-05-17T17:56:43.470Z,99338.30
2019-05-17T17:59:14.153Z,99341.56
2019-05-17T18:01:44.910Z,99340.46
2019-05-17T18:04:15.592Z,99342.05
2019-05-17T18:06:46.228Z,99348.30
2019-05-17T18:09:17.279Z,99350.16
2019-05-17T18:11:47.989Z,99345.77
2019-05-17T18:14:18.737Z,99347.70
2019-05-17T18:16:49.348Z,99347.70
2019-05-17T18:19:20.108Z,99347.41
2019-05-17T18:21:50.927Z,99348.20
2019-05-17T18:24:21.559Z,99351.76
2019-05-17T18:26:52.337Z,99345.45
2019-05-17T18:29:23.011Z,99347.07
2019-05-17T18:31:54.060Z,99345.89
2019-05-17T18:34:24.782Z,99348.36
2019-05-17T18:36:55.379Z,99346.39
2019-05-17T18:39:26.586Z,99351.00
2019-05-17T18:41:57.187Z,99346.08
2019-05-17T18:44:29.346Z,99347.66
2019-05-17T18:47:00.113Z,99350.65
2019-05-17T18:49:30.748Z,99349.20
2019-05-17T18:52:02.456Z,99354.38
2019-05-17T18:54:33.173Z,99351.61
2019-05-17T18:57:03.917Z,99355.38
2019-05-17T18:59:34.551Z,99352.13
2019-05-17T19:02:05.227Z,99347.99
2019-05-17T19:04:35.948Z,99349.61
2019-05-17T19:07:06.787Z,99346.63
2019-05-17T19:09:37.532Z,99355.01
2019-05-17T19:12:08.275Z,99353.59
2019-05-17T19:14:43.119Z,99363.09
2019-05-17T19:17:11.386Z,99372.23
2019-05-17T19:19:42.043Z,99364.03
2019-05-17T19:22:12.790Z,99370.48
2019-05-17T19:24:43.380Z,99372.58
2019-05-17T19:27:14.132Z,99363.92
2019-05-17T19:29:44.825Z,99372.00
2019-05-17T19:32:15.454Z,99362.73
2019-05-17T19:34:47.811Z,99358.60
2019-05-17T19:37:19.060Z,99356.97
2019-05-17T19:39:50.018Z,99360.14
2019-05-17T19:42:23.167Z,99358.50
2019-05-17T19:44:59.492Z,99359.27
2019-05-17T19:47:29.131Z,99369.24
2019-05-17T19:50:00.186Z,99364.31
2019-05-17T19:52:31.356Z,99362.59
2019-05-17T19:55:02.055Z,99365.32
2019-05-17T19:57:32.736Z,99360.94
2019-05-17T20:00:04.169Z,99364.72
2019-05-17T20:02:34.789Z,99364.66
2019-05-17T20:05:07.193Z,99368.91
2019-05-17T20:07:39.414Z,99370.44
2019-05-17T20:10:12.939Z,99366.10
2019-05-17T20:12:43.787Z,99368.80
2019-05-17T20:15:18.196Z,99375.21
2019-05-17T20:17:48.974Z,99374.03
2019-05-17T20:20:19.685Z,99378.78
2019-05-17T20:22:51.826Z,99375.53
2019-05-17T20:25:22.665Z,99380.64
2019-05-17T20:27:53.601Z,99369.78
2019-05-17T20:30:24.220Z,99374.05
2019-05-17T20:32:58.034Z,99376.96
2019-05-17T20:35:28.644Z,99390.18
2019-05-17T20:37:59.318Z,99382.78
2019-05-17T20:40:29.931Z,99387.33
2019-05-17T20:43:00.561Z,99386.55
2019-05-17T20:45:33.509Z,99381.27
2019-05-17T20:48:03.983Z,99385.98
2019-05-17T20:50:34.603Z,99387.01
2019-05-17T20:53:18.000Z,99385.04
2019-05-17T20:55:37.716Z,99385.16
2019-05-17T20:58:08.352Z,99390.13
2019-05-17T21:00:38.972Z,99375.73
2019-05-17T21:03:13.638Z,99378.35
2019-05-17T21:05:42.239Z,99380.45
2019-05-17T21:08:12.965Z,99376.53
2019-05-17T21:10:44.127Z,99376.01
2019-05-17T21:13:14.816Z,99376.47
2019-05-17T21:15:47.957Z,99378.25
2019-05-17T21:18:18.326Z,99380.91
2019-05-17T21:20:48.948Z,99379.20
2019-05-17T21:23:19.636Z,99387.09
2019-05-17T21:25:50.690Z,99377.75
2019-05-17T21:28:21.827Z,99376.36
2019-05-17T21:30:52.879Z,99367.75
2019-05-17T21:33:23.686Z,99370.22
2019-05-17T21:35:54.337Z,99376.58
2019-05-17T21:38:25.982Z,99367.86
2019-05-17T21:40:56.629Z,99379.42
2019-05-17T21:43:27.314Z,99382.48
2019-05-17T21:46:04.477Z,99374.07
2019-05-17T21:48:35.156Z,99369.41
2019-05-17T21:51:05.801Z,99365.08
2019-05-17T21:53:36.534Z,99357.05
2019-05-17T21:56:07.495Z,99356.56
2019-05-17T21:58:38.614Z,99353.23
2019-05-17T22:01:15.101Z,99361.28
2019-05-17T22:03:45.789Z,99354.52
2019-05-17T22:06:16.739Z,99359.30
2019-05-17T22:08:48.072Z,99352.94
2019-05-17T22:11:18.719Z,99355.30
2019-05-17T22:13:49.300Z,99350.36
2019-05-17T22:16:20.422Z,99353.03
2019-05-17T22:18:51.188Z,99354.79
2019-05-17T22:21:21.811Z,99352.24
2019-05-17T22:23:53.039Z,99356.66
2019-05-17T22:26:23.644Z,99355.55
2019-05-17T22:28:54.791Z,99356.07
2019-05-17T22:31:25.793Z,99356.38
2019-05-17T22:33:56.915Z,99364.11
2019-05-17T22:36:27.611Z,99360.48
2019-05-17T22:38:58.748Z,99362.80
2019-05-17T22:41:29.586Z,99366.81
2019-05-17T22:44:04.563Z,99355.16
2019-05-17T22:46:36.509Z,99361.41
2019-05-17T22:49:07.416Z,99359.41
2019-05-17T22:51:38.108Z,99358.81
2019-05-17T22:54:08.749Z,99360.08
2019-05-17T22:56:41.009Z,99359.88
2019-05-17T22:59:11.614Z,99354.94
2019-05-17T23:01:42.627Z,99354.15
2019-05-17T23:04:14.689Z,99353.09
2019-05-17T23:06:45.521Z,99352.63
2019-05-17T23:09:16.323Z,99341.57
2019-05-17T23:11:48.525Z,99341.40
2019-05-17T23:14:19.980Z,99343.41
2019-05-17T23:16:52.163Z,99340.17
2019-05-17T23:19:23.039Z,99345.06
2019-05-17T23:21:55.519Z,99343.76
2019-05-17T23:24:26.762Z,99341.62
2019-05-17T23:26:57.366Z,99342.69
2019-05-17T23:29:28.018Z,99346.94
2019-05-17T23:31:58.700Z,99337.05
2019-05-17T23:34:30.818Z,99338.27
2019-05-17T23:37:01.413Z,99338.27
2019-05-17T23:39:32.041Z,99329.15
2019-05-17T23:42:02.624Z,99327.70
2019-05-17T23:44:33.789Z,99325.05
2019-05-17T23:47:07.142Z,99341.07
2019-05-17T23:49:38.511Z,99326.73
2019-05-17T23:52:10.724Z,99331.94
2019-05-17T23:54:41.412Z,99331.42
2019-05-17T23:57:12.132Z,99329.93
2019-05-17T23:59:43.246Z,99333.75
